Time;durP1;ratioP1;P1;durP2;ratioP2;P2;SDS_P1;SDS_P2;PMS_P1;PMS_P2;Temp;Humidity;BMP_temperature;BMP_pressure;BME280_temperature;BME280_humidity;BME280_pressure;Samples;Min_cycle;Max_cycle;Signal;HPM_P1;HPM_P2
2022/12/26 00:01:22;;;;;;;74.38;30.25;;;;;;;3.89;69.56;96036.81;4978046;28;20034;-80
2022/12/26 00:03:48;;;;;;;58.35;28.02;;;;;;;4.72;69.71;96160.13;4977718;28;20045;-80
2022/12/26 00:06:16;;;;;;;64.03;30.27;;;;;;;4.68;69.54;96159.72;4980424;28;20034;-81
2022/12/26 00:08:42;;;;;;;66.07;30.92;;;;;;;3.37;69.32;95973.09;4998994;28;20105;-81
2022/12/26 00:11:08;;;;;;;64.40;29.88;;;;;;;3.94;69.50;96050.09;5011744;28;20038;-80
2022/12/26 00:13:34;;;;;;;60.17;28.30;;;;;;;3.90;69.37;96038.41;4999255;28;20488;-80
2022/12/26 00:15:59;;;;;;;61.53;26.20;;;;;;;4.56;69.66;96164.88;4997329;28;20133;-81
2022/12/26 00:18:24;;;;;;;56.53;24.80;;;;;;;3.82;69.66;96057.00;4999503;28;20052;-80
2022/12/26 00:20:50;;;;;;;53.47;26.00;;;;;;;3.77;69.75;96068.13;4998455;28;20077;-81
2022/12/26 00:23:15;;;;;;;63.78;27.92;;;;;;;3.55;69.77;96037.16;4981258;28;20030;-80
2022/12/26 00:25:41;;;;;;;58.78;25.85;;;;;;;3.85;70.51;96114.31;4998634;28;20555;-80
2022/12/26 00:28:06;;;;;;;60.05;25.52;;;;;;;4.33;70.92;96190.03;4999161;28;20038;-80
2022/12/26 00:30:31;;;;;;;63.00;26.95;;;;;;;3.76;70.71;96079.66;4999110;28;20042;-80
2022/12/26 00:32:57;;;;;;;52.83;23.98;;;;;;;3.46;70.24;96070.69;4981658;28;20046;-80
2022/12/26 00:35:22;;;;;;;54.97;24.52;;;;;;;3.88;70.01;96101.63;4981499;28;20042;-80
2022/12/26 00:37:48;;;;;;;60.55;26.05;;;;;;;3.29;69.87;96015.28;4999077;28;20070;-80
2022/12/26 00:40:13;;;;;;;57.25;26.70;;;;;;;2.94;69.63;95954.53;4998822;28;20031;-80
2022/12/26 00:42:39;;;;;;;54.65;25.67;;;;;;;3.66;70.56;96094.25;4998552;28;20113;-81
2022/12/26 00:45:04;;;;;;;58.13;26.60;;;;;;;4.22;70.54;96181.81;4980651;28;20040;-80
2022/12/26 00:47:30;;;;;;;61.17;28.13;;;;;;;4.17;70.90;96186.06;4998711;28;20026;-80
2022/12/26 00:49:55;;;;;;;52.33;26.27;;;;;;;3.61;70.77;96091.41;4981320;28;20030;-80
2022/12/26 00:52:21;;;;;;;58.35;26.73;;;;;;;3.75;70.96;96114.75;4998201;28;20054;-80
2022/12/26 00:54:46;;;;;;;56.72;26.90;;;;;;;3.59;70.84;96094.25;4998639;28;20261;-81
2022/12/26 00:57:11;;;;;;;59.72;27.38;;;;;;;3.07;70.45;96006.88;4980702;28;20077;-80
2022/12/26 00:59:37;;;;;;;60.53;28.25;;;;;;;3.50;70.70;96085.00;4980747;28;20042;-80
2022/12/26 01:02:36;;;;;;;63.20;29.38;;;;;;;3.80;70.72;96125.47;4988710;28;20030;-81
2022/12/26 01:04:47;;;;;;;68.80;29.38;;;;;;;3.67;70.59;96109.75;4997803;28;20524;-80
2022/12/26 01:07:13;;;;;;;69.30;31.00;;;;;;;3.16;71.26;96035.50;4997969;28;20034;-80
2022/12/26 01:09:38;;;;;;;76.45;32.35;;;;;;;2.94;71.65;96016.59;4998470;28;20034;-81
2022/12/26 01:12:04;;;;;;;72.95;33.65;;;;;;;3.85;71.18;96137.94;4994892;28;20034;-81
2022/12/26 01:14:30;;;;;;;74.85;32.30;;;;;;;4.13;71.59;96187.50;4980764;28;20054;-80
2022/12/26 01:16:55;;;;;;;84.90;35.97;;;;;;;4.10;71.16;96190.56;4997009;28;20050;-80
2022/12/26 01:19:21;;;;;;;78.40;36.22;;;;;;;3.48;71.69;96105.38;4980206;28;20551;-80
2022/12/26 01:21:46;;;;;;;84.43;37.50;;;;;;;4.12;71.43;96201.66;4980162;28;20031;-80
2022/12/26 01:24:12;;;;;;;91.18;37.90;;;;;;;4.12;71.48;96207.69;4980350;28;20092;-80
2022/12/26 01:26:38;;;;;;;86.40;36.55;;;;;;;4.04;71.70;96221.06;5012701;28;20128;-80
2022/12/26 01:29:03;;;;;;;78.20;35.42;;;;;;;3.55;72.43;96153.38;4997959;28;20122;-80
2022/12/26 01:31:29;;;;;;;74.15;34.85;;;;;;;3.64;71.78;96146.91;4997472;28;20092;-80
2022/12/26 01:33:54;;;;;;;79.15;36.65;;;;;;;4.05;71.46;96217.41;5005239;28;20488;-80
2022/12/26 01:36:19;;;;;;;76.38;37.25;;;;;;;3.50;72.01;96124.34;4980423;28;20034;-80
2022/12/26 01:38:45;;;;;;;78.35;36.45;;;;;;;4.03;71.80;96208.97;4983135;28;20493;-80
2022/12/26 01:41:16;;;;;;;81.97;37.78;;;;;;;3.33;71.86;96094.34;4983729;28;20030;-80
2022/12/26 01:43:47;;;;;;;84.22;41.42;;;;;;;4.01;72.45;96207.53;4980084;28;20037;-80
2022/12/26 01:46:15;;;;;;;85.18;38.22;;;;;;;3.54;72.65;96153.56;4997657;28;20563;-81
2022/12/26 01:48:40;;;;;;;84.18;39.10;;;;;;;3.41;72.68;96130.81;4996946;28;20038;-81
2022/12/26 01:51:06;;;;;;;88.88;39.67;;;;;;;3.84;72.63;96191.44;5012549;28;20130;-81
2022/12/26 01:53:40;;;;;;;88.10;37.33;;;;;;;3.31;72.38;96101.59;4979306;28;20045;-80
2022/12/26 01:56:34;;;;;;;86.85;37.40;;;;;;;3.79;72.21;96199.13;4997946;28;20035;-80
2022/12/26 01:59:12;;;;;;;85.03;40.58;;;;;;;3.42;72.54;96125.38;4977435;28;20050;-80
2022/12/26 02:01:40;;;;;;;85.40;38.75;;;;;;;3.63;72.54;96163.66;4979773;28;20045;-81
2022/12/26 02:07:06;;;;;;;95.47;39.70;;;;;;;3.38;72.37;96124.16;4925666;28;20048;-81
2022/12/26 02:09:32;;;;;;;92.40;41.78;;;;;;;2.92;72.41;96066.59;4996999;28;20042;-81
2022/12/26 02:12:03;;;;;;;87.70;43.80;;;;;;;3.39;72.35;96122.34;4979637;28;20526;-80
2022/12/26 02:14:30;;;;;;;92.28;42.45;;;;;;;2.76;72.10;96017.22;4979006;28;20303;-80
2022/12/26 02:16:55;;;;;;;95.88;41.22;;;;;;;3.48;72.26;96132.41;4979106;28;20061;-80
2022/12/26 02:20:00;;;;;;;85.75;40.30;;;;;;;3.74;72.03;96170.88;4996877;28;20408;-80
2022/12/26 02:23:03;;;;;;;93.25;39.95;;;;;;;3.69;72.38;96170.69;4948110;28;20061;-80
2022/12/26 02:25:56;;;;;;;83.63;40.97;;;;;;;3.21;72.33;96106.44;4978671;28;20030;-81
2022/12/26 02:28:55;;;;;;;87.53;39.80;;;;;;;3.58;72.30;96176.59;4995807;28;20057;-81
2022/12/26 02:31:46;;;;;;;79.43;36.92;;;;;;;3.60;72.25;96168.50;5010241;28;20053;-81
2022/12/26 02:34:11;;;;;;;80.57;40.85;;;;;;;3.52;72.13;96169.50;4995840;28;20046;-81
2022/12/26 02:37:03;;;;;;;87.00;38.25;;;;;;;3.48;72.39;96171.75;4993234;28;20046;-81
2022/12/26 02:39:31;;;;;;;84.85;38.30;;;;;;;3.51;72.75;96177.59;4974502;28;20698;-81
2022/12/26 02:42:25;;;;;;;88.22;41.75;;;;;;;3.49;72.34;96176.00;4981581;28;20048;-81
2022/12/26 02:48:04;;;;;;;110.20;54.47;;;;;;;3.02;72.54;96101.03;4992192;28;20052;-82
2022/12/26 03:14:54;;;;;;;91.50;41.88;;;;;;;2.46;73.16;96027.34;4995441;28;20053;-81
2022/12/26 03:17:32;;;;;;;83.65;39.25;;;;;;;2.91;72.94;96112.13;4995596;28;20062;-80
2022/12/26 03:20:00;;;;;;;88.25;41.08;;;;;;;3.37;73.11;96179.44;4978444;28;20424;-81
2022/12/26 03:22:29;;;;;;;88.10;39.75;;;;;;;2.90;72.29;96105.28;4995236;28;20070;-80
2022/12/26 03:27:41;;;;;;;89.05;40.55;;;;;;;2.80;72.37;96104.91;4995779;28;20437;-80
2022/12/26 03:32:53;;;;;;;84.15;38.53;;;;;;;2.73;72.81;96117.19;4994934;28;20054;-80
2022/12/26 03:35:19;;;;;;;78.30;39.33;;;;;;;2.04;72.90;96009.41;4978671;28;20038;-80
2022/12/26 03:37:57;;;;;;;81.75;37.92;;;;;;;2.44;72.81;96076.47;4996187;28;20045;-80
2022/12/26 04:45:04;;;;;;;74.13;33.53;;;;;;;2.33;73.98;96119.78;4979105;28;20126;-80
2022/12/26 04:47:31;;;;;;;75.68;33.22;;;;;;;2.92;74.32;96196.78;4961313;28;20454;-80
2022/12/26 04:50:12;;;;;;;75.10;34.50;;;;;;;2.95;73.90;96196.41;4961127;28;20042;-80
2022/12/26 04:52:53;;;;;;;85.90;35.25;;;;;;;1.97;73.98;96053.88;4991946;28;20043;-80
2022/12/26 04:55:19;;;;;;;76.15;33.10;;;;;;;2.27;73.71;96097.00;4961247;28;20046;-81
2022/12/26 04:57:45;;;;;;;78.93;34.85;;;;;;;1.95;73.79;96040.19;4978223;28;20038;-80
2022/12/26 05:00:11;;;;;;;63.05;33.13;;;;;;;2.54;73.38;96147.59;4976923;28;20468;-80
2022/12/26 05:10:49;;;;;;;75.88;33.95;;;;;;;2.74;72.97;96180.88;4978286;28;20050;-80
2022/12/26 05:13:14;;;;;;;66.07;33.42;;;;;;;2.07;72.93;96083.06;4960873;28;20027;-80
2022/12/26 05:29:29;;;;;;;95.20;45.13;;;;;;;1.71;75.10;96125.22;4977736;28;20154;-80
2022/12/26 05:31:54;;;;;;;101.32;47.30;;;;;;;1.50;75.50;96107.03;4960515;28;20066;-80
2022/12/26 05:34:20;;;;;;;109.20;45.28;;;;;;;1.46;75.99;96111.00;4960022;28;20933;-80
2022/12/26 05:36:52;;;;;;;97.65;45.63;;;;;;;2.22;75.56;96206.69;4977542;28;20055;-80
2022/12/26 05:39:17;;;;;;;95.75;44.75;;;;;;;1.95;74.97;96147.44;4978115;28;20093;-80
2022/12/26 05:41:43;;;;;;;100.00;46.83;;;;;;;1.65;74.88;96081.53;4977235;28;20038;-80
2022/12/26 05:44:09;;;;;;;100.80;46.00;;;;;;;1.75;74.60;96078.56;4972791;28;20039;-80
2022/12/26 05:46:35;;;;;;;92.07;42.35;;;;;;;2.63;74.60;96227.56;4966822;28;20035;-80
2022/12/26 05:49:01;;;;;;;90.75;41.65;;;;;;;2.61;74.41;96229.56;4960058;28;20571;-80
2022/12/26 05:51:27;;;;;;;92.18;42.42;;;;;;;1.68;74.62;96082.97;4976676;28;20039;-80
2022/12/26 05:53:52;;;;;;;92.57;41.55;;;;;;;1.92;74.69;96122.47;4977414;28;20065;-80
2022/12/26 05:56:19;;;;;;;89.30;42.00;;;;;;;2.43;74.39;96204.97;4960002;28;20477;-80
2022/12/26 05:58:45;;;;;;;87.28;41.33;;;;;;;2.54;74.05;96207.00;4976153;28;20039;-79
2022/12/26 06:01:17;;;;;;;88.80;41.25;;;;;;;2.12;74.43;96142.66;4959503;28;20031;-80
2022/12/26 06:03:46;;;;;;;;;;;;;;;2.67;74.05;96236.63;4976026;28;20050;-80
2022/12/26 06:06:11;;;;;;;81.90;39.53;;;;;;;1.49;74.09;96043.47;4959287;28;20000;-79
2022/12/26 06:08:37;;;;;;;90.57;39.53;;;;;;;2.08;74.15;96147.47;4976960;28;21143;-79
2022/12/26 06:11:08;;;;;;;88.95;39.17;;;;;;;1.73;73.66;96091.03;4976807;28;20031;-79
2022/12/26 06:13:33;;;;;;;87.22;40.25;;;;;;;1.79;74.17;96105.94;4959583;28;20069;-79
2022/12/26 06:16:05;;;;;;;100.28;43.33;;;;;;;2.54;74.12;96218.28;4977141;28;20038;-81
2022/12/26 06:18:31;;;;;;;93.30;42.67;;;;;;;2.37;74.08;96184.78;4995734;28;20041;-80
2022/12/26 06:20:57;;;;;;;100.50;42.45;;;;;;;1.97;74.16;96134.97;5010502;28;20065;-80
2022/12/26 06:23:22;;;;;;;88.57;41.30;;;;;;;2.53;74.12;96216.66;4995907;28;20023;-81
2022/12/26 06:25:55;;;;;;;91.85;40.90;;;;;;;2.00;73.61;96128.53;4995330;28;20057;-81
2022/12/26 06:28:21;;;;;;;95.05;41.92;;;;;;;2.72;73.77;96251.78;4979026;28;20042;-80
2022/12/26 06:30:47;;;;;;;98.63;43.03;;;;;;;2.11;73.84;96175.88;4978297;28;20034;-80
2022/12/26 06:33:12;;;;;;;83.07;38.15;;;;;;;2.71;73.92;96255.41;4995553;28;20041;-80
2022/12/26 06:35:38;;;;;;;82.10;38.25;;;;;;;2.70;74.23;96257.22;4978991;28;20525;-80
2022/12/26 06:38:03;;;;;;;86.57;39.55;;;;;;;2.49;73.82;96232.97;4995651;28;20030;-80
2022/12/26 06:40:29;;;;;;;102.38;42.13;;;;;;;2.52;74.30;96238.63;4978952;28;20034;-80
2022/12/26 06:42:54;;;;;;;83.45;38.42;;;;;;;2.32;74.61;96220.25;4977577;28;20033;-81
2022/12/26 06:45:21;;;;;;;99.13;40.33;;;;;;;1.90;74.54;96126.31;4978978;28;20037;-81
2022/12/26 06:47:46;;;;;;;90.28;40.60;;;;;;;1.58;74.36;96085.13;4978149;28;20038;-81
2022/12/26 06:50:12;;;;;;;92.93;39.40;;;;;;;2.50;74.28;96226.75;4978535;28;20054;-81
2022/12/26 06:52:37;;;;;;;100.45;40.35;;;;;;;1.96;74.25;96130.75;4995348;28;20035;-81
2022/12/26 06:55:03;;;;;;;95.15;40.22;;;;;;;2.22;74.51;96171.88;4995478;28;20031;-81
2022/12/26 06:57:29;;;;;;;94.63;41.60;;;;;;;2.24;74.43;96181.16;4977934;28;20096;-81
2022/12/26 06:59:54;;;;;;;92.88;41.53;;;;;;;2.01;74.26;96111.84;4995804;28;20101;-81
2022/12/26 07:02:20;;;;;;;95.63;43.85;;;;;;;2.67;74.59;96228.78;4995447;28;20030;-81
2022/12/26 07:04:45;;;;;;;99.93;44.28;;;;;;;2.43;74.52;96181.41;4978117;28;20042;-81
2022/12/26 07:07:11;;;;;;;95.18;44.60;;;;;;;2.35;74.41;96160.66;4996151;28;20061;-81
2022/12/26 07:09:36;;;;;;;96.78;43.38;;;;;;;2.82;74.06;96236.50;4995765;28;20042;-81
2022/12/26 07:12:02;;;;;;;100.88;45.70;;;;;;;2.54;74.34;96188.66;4996039;28;20060;-81
2022/12/26 07:14:27;;;;;;;111.35;46.63;;;;;;;3.15;74.11;96288.13;4994649;28;20401;-80
2022/12/26 07:16:53;;;;;;;113.90;47.90;;;;;;;2.44;74.00;96162.88;4991561;28;20057;-81
2022/12/26 07:19:18;;;;;;;99.40;46.97;;;;;;;2.49;73.99;96165.72;4995227;28;20528;-81
2022/12/26 07:21:44;;;;;;;87.28;42.50;;;;;;;2.95;74.26;96241.75;4978495;28;20041;-80
2022/12/26 07:24:18;;;;;;;90.22;43.30;;;;;;;3.32;74.10;96286.75;4978072;28;20030;-80
2022/12/26 07:26:44;;;;;;;87.57;44.05;;;;;;;2.75;73.98;96206.06;4979165;28;20030;-80
2022/12/26 07:29:11;;;;;;;95.10;43.00;;;;;;;3.13;74.07;96248.22;4980252;28;20034;-80
2022/12/26 07:31:37;;;;;;;88.35;42.03;;;;;;;3.02;74.28;96229.47;4994944;28;20030;-80
2022/12/26 07:34:03;;;;;;;79.75;38.78;;;;;;;3.48;74.12;96288.97;4994904;28;20030;-81
2022/12/26 07:36:28;;;;;;;81.55;38.17;;;;;;;2.30;73.99;96082.69;4995777;28;20409;-80
2022/12/26 07:38:54;;;;;;;79.15;37.60;;;;;;;3.14;74.20;96226.22;4977368;28;20061;-81
2022/12/26 07:44:04;;;;;;;67.10;34.10;;;;;;;2.90;74.06;96165.53;4995648;28;20420;-80
2022/12/26 07:46:30;;;;;;;69.13;32.10;;;;;;;3.08;74.19;96184.09;4978008;28;20034;-81
2022/12/26 07:48:56;;;;;;;70.13;31.83;;;;;;;3.62;74.43;96258.28;4995139;28;20100;-80
2022/12/26 07:51:21;;;;;;;70.13;30.50;;;;;;;3.07;74.48;96166.75;4977963;28;20039;-80
2022/12/26 07:53:47;;;;;;;70.55;30.65;;;;;;;3.85;74.25;96277.03;4995348;28;20536;-81
2022/12/26 07:56:13;;;;;;;61.05;29.65;;;;;;;3.28;73.98;96194.56;4977854;28;20034;-80
2022/12/26 07:58:38;;;;;;;61.40;28.58;;;;;;;3.96;74.14;96280.84;4995538;28;20106;-80
2022/12/26 08:01:05;;;;;;;59.05;30.27;;;;;;;3.36;73.86;96183.06;4977738;28;20033;-81
2022/12/26 08:03:31;;;;;;;71.68;33.97;;;;;;;3.45;73.92;96192.31;4977984;28;20026;-81
2022/12/26 08:05:57;;;;;;;115.85;58.63;;;;;;;3.77;74.00;96253.63;4981355;28;20572;-81
2022/12/26 08:08:22;;;;;;;175.60;88.32;;;;;;;2.93;73.95;96112.75;4977821;28;20508;-82
2022/12/26 08:10:48;;;;;;;176.15;91.22;;;;;;;3.89;73.68;96268.53;4994535;28;20043;-81
2022/12/26 08:13:13;;;;;;;198.73;103.03;;;;;;;3.41;73.31;96202.44;4977554;28;20101;-81
2022/12/26 08:15:39;;;;;;;191.40;102.60;;;;;;;3.70;73.72;96268.56;4995258;28;20085;-81
2022/12/26 08:18:06;;;;;;;203.07;98.85;;;;;;;3.07;73.99;96169.38;4995535;28;20069;-81
2022/12/26 08:20:32;;;;;;;171.38;91.97;;;;;;;2.99;74.25;96153.03;4977656;28;20050;-81
2022/12/26 08:22:57;;;;;;;133.18;69.03;;;;;;;3.49;74.36;96252.06;4994871;28;20057;-81
2022/12/26 08:25:23;;;;;;;129.68;66.10;;;;;;;2.97;74.23;96183.91;4977112;28;20034;-81
2022/12/26 08:27:49;;;;;;;134.65;69.63;;;;;;;2.60;74.88;96144.16;4997358;28;20100;-81
2022/12/26 08:30:14;;;;;;;132.80;64.82;;;;;;;2.99;75.38;96231.66;4980465;28;20519;-81
2022/12/26 08:32:40;;;;;;;120.90;62.08;;;;;;;2.87;75.28;96179.06;4964143;28;20038;-81
2022/12/26 08:35:06;;;;;;;121.47;61.47;;;;;;;3.09;74.95;96196.19;4997832;28;20031;-81
2022/12/26 08:37:32;;;;;;;109.00;55.83;;;;;;;3.04;74.73;96167.16;4998223;28;20092;-81
2022/12/26 08:39:57;;;;;;;109.10;53.53;;;;;;;3.62;74.19;96230.25;5013451;28;20138;-81
2022/12/26 08:42:22;;;;;;;93.38;48.65;;;;;;;3.94;74.12;96277.63;5013834;28;20022;-81
2022/12/26 08:44:48;;;;;;;82.20;43.95;;;;;;;3.51;73.54;96190.72;4998080;28;20030;-81
2022/12/26 08:47:14;;;;;;;83.78;43.42;;;;;;;3.82;73.78;96233.63;4997632;28;20448;-81
2022/12/26 08:49:40;;;;;;;80.97;42.53;;;;;;;3.23;73.64;96128.84;4998974;28;20046;-82
2022/12/26 08:52:06;;;;;;;87.43;41.50;;;;;;;3.58;73.12;96157.41;4980396;28;20034;-81
2022/12/26 08:54:31;;;;;;;103.65;45.70;;;;;;;3.78;73.18;96194.88;4998512;28;20193;-81
2022/12/26 08:56:56;;;;;;;88.95;44.40;;;;;;;3.85;73.00;96196.47;4989932;28;20106;-81
2022/12/26 08:59:22;;;;;;;85.25;42.13;;;;;;;3.23;72.79;96084.25;4980528;28;20065;-81
2022/12/26 09:01:47;;;;;;;77.57;38.45;;;;;;;3.79;73.00;96199.94;4981049;28;20030;-81
2022/12/26 09:04:13;;;;;;;67.35;33.97;;;;;;;3.74;73.97;96188.44;4997862;28;20118;-81
2022/12/26 09:06:39;;;;;;;67.57;33.20;;;;;;;3.32;73.68;96140.72;4980098;28;20505;-81
2022/12/26 09:09:07;;;;;;;61.65;32.28;;;;;;;4.20;73.94;96254.72;4980882;28;20085;-81
2022/12/26 09:11:33;;;;;;;60.53;31.75;;;;;;;3.54;74.32;96146.53;4998355;28;20046;-81
2022/12/26 09:14:01;;;;;;;59.15;30.15;;;;;;;4.13;73.82;96221.63;4998853;28;20553;-81
2022/12/26 09:16:35;;;;;;;59.03;31.67;;;;;;;3.82;74.32;96173.28;4999800;28;20548;-81
2022/12/26 09:19:01;;;;;;;63.42;35.92;;;;;;;4.42;73.99;96251.84;4979662;28;20096;-81
2022/12/26 09:21:28;;;;;;;68.63;39.28;;;;;;;4.45;74.46;96251.41;4998130;28;20081;-81
2022/12/26 09:23:57;;;;;;;73.88;40.28;;;;;;;4.34;75.22;96245.00;4997448;28;20030;-81
2022/12/26 09:26:24;;;;;;;72.40;40.00;;;;;;;3.58;75.06;96118.88;4997509;28;20030;-81
2022/12/26 09:28:50;;;;;;;72.70;37.75;;;;;;;3.09;75.23;96048.63;4996885;28;20511;-81
2022/12/26 09:31:21;;;;;;;78.40;43.75;;;;;;;4.51;75.29;96248.75;4997238;28;20066;-81
2022/12/26 09:33:47;;;;;;;75.32;39.90;;;;;;;4.44;74.95;96245.34;4979543;28;20042;-81
2022/12/26 09:36:23;;;;;;;65.82;36.28;;;;;;;3.24;74.70;96035.25;4979556;28;20034;-81
2022/12/26 09:38:48;;;;;;;59.55;32.47;;;;;;;4.37;74.23;96186.78;4995922;28;20030;-81
2022/12/26 09:41:36;;;;;;;53.45;29.77;;;;;;;4.85;73.82;96236.25;4979459;28;20027;-81
2022/12/26 09:44:49;;;;;;;58.13;30.33;;;;;;;4.98;73.37;96239.59;4979708;28;20253;-81
2022/12/26 09:47:38;;;;;;;62.47;30.13;;;;;;;4.40;73.50;96138.28;4966499;28;20046;-81
2022/12/26 09:50:28;;;;;;;69.65;33.65;;;;;;;5.02;73.14;96243.41;4979932;28;20030;-81
2022/12/26 09:53:02;;;;;;;58.03;33.03;;;;;;;5.05;72.78;96234.28;4996487;28;20046;-81
2022/12/26 09:55:49;;;;;;;70.80;32.38;;;;;;;5.13;73.48;96231.38;4979557;28;20033;-81
2022/12/26 09:58:23;;;;;;;61.55;33.35;;;;;;;4.41;72.80;96124.94;4978821;28;20030;-81
2022/12/26 10:00:55;;;;;;;62.67;34.72;;;;;;;5.12;73.13;96228.97;5011559;28;20034;-81
2022/12/26 10:03:22;;;;;;;65.53;33.35;;;;;;;5.13;73.42;96223.50;4999420;28;20034;-81
2022/12/26 10:06:21;;;;;;;64.50;33.92;;;;;;;5.32;72.47;96217.28;4997282;28;20045;-81
2022/12/26 10:09:01;;;;;;;64.30;33.72;;;;;;;5.36;72.76;96215.84;4984965;28;20104;-81
2022/12/26 10:11:53;;;;;;;62.05;32.53;;;;;;;5.36;72.75;96200.06;4997231;28;20034;-80
2022/12/26 10:14:37;;;;;;;58.80;30.85;;;;;;;5.33;72.83;96211.03;4976073;28;20129;-81
2022/12/26 10:17:23;;;;;;;53.35;30.58;;;;;;;5.71;72.49;96204.81;4985027;28;20050;-81
2022/12/26 10:20:04;;;;;;;59.80;30.35;;;;;;;6.54;72.23;96200.63;4993495;28;20501;-80
2022/12/26 10:22:48;;;;;;;52.65;29.98;;;;;;;7.56;69.22;96188.09;4979187;28;20517;-80
2022/12/26 10:25:22;;;;;;;48.80;26.90;;;;;;;8.09;65.55;96124.53;4978640;28;20035;-80
2022/12/26 10:27:49;;;;;;;44.10;23.92;;;;;;;9.21;62.91;96179.47;4996421;28;20501;-80
2022/12/26 10:30:22;;;;;;;39.15;23.75;;;;;;;9.03;59.18;96102.94;4978408;28;20042;-81
2022/12/26 10:32:53;;;;;;;38.95;22.25;;;;;;;9.83;58.71;96135.09;4978214;28;20038;-81
2022/12/26 10:35:44;;;;;;;35.35;18.95;;;;;;;10.44;57.08;96175.63;4978282;28;20050;-81
2022/12/26 10:38:39;;;;;;;30.73;16.55;;;;;;;10.13;55.45;96094.13;4992306;28;20038;-81
2022/12/26 10:41:13;;;;;;;32.45;17.48;;;;;;;10.56;55.32;96175.50;4961909;28;20409;-80
2022/12/26 10:43:43;;;;;;;29.70;17.35;;;;;;;10.59;54.77;96088.28;4995191;28;20080;-81
2022/12/26 10:46:21;;;;;;;43.28;18.55;;;;;;;10.45;52.94;96007.53;4977595;28;20402;-81
2022/12/26 10:48:47;;;;;;;34.05;18.95;;;;;;;10.90;52.74;96059.34;4977987;28;20066;-81
2022/12/26 10:51:13;;;;;;;29.48;16.25;;;;;;;11.15;51.83;96051.56;4994395;28;20038;-81
2022/12/26 10:53:42;;;;;;;32.47;14.93;;;;;;;11.26;51.19;96098.38;4978445;28;20085;-80
2022/12/26 10:56:08;;;;;;;27.42;12.07;;;;;;;11.83;51.08;96153.47;4994937;28;20461;-81
2022/12/26 10:58:36;;;;;;;24.75;12.77;;;;;;;11.37;50.77;96105.34;4978037;28;20058;-81
2022/12/26 11:01:26;;;;;;;28.33;13.98;;;;;;;11.75;50.91;96160.09;4977833;28;20038;-80
2022/12/26 11:04:01;;;;;;;29.73;14.02;;;;;;;11.72;50.71;96143.84;4995916;28;20034;-80
2022/12/26 11:06:51;;;;;;;30.20;14.43;;;;;;;11.71;50.44;96144.88;4980226;28;20034;-81
2022/12/26 11:09:41;;;;;;;30.73;16.10;;;;;;;11.64;50.48;96120.41;4978769;28;20038;-80
2022/12/26 11:12:27;;;;;;;33.72;15.05;;;;;;;11.33;51.34;96088.34;4992813;28;20501;-80
2022/12/26 11:14:58;;;;;;;34.05;14.30;;;;;;;10.91;51.06;96047.69;4967292;28;20096;-81
2022/12/26 11:17:29;;;;;;;27.23;13.60;;;;;;;10.61;50.83;95985.34;4995551;28;20051;-80
2022/12/26 11:20:22;;;;;;;28.67;14.38;;;;;;;11.44;51.24;96123.75;4978214;28;20031;-80
2022/12/26 11:22:48;;;;;;;26.48;12.85;;;;;;;10.65;51.18;95999.72;4972475;28;20046;-80
2022/12/26 11:25:20;;;;;;;30.90;15.25;;;;;;;10.78;51.40;96020.50;4977991;28;20134;-80
2022/12/26 11:27:55;;;;;;;31.63;13.75;;;;;;;10.88;51.72;96062.25;4996449;28;20046;-80
2022/12/26 11:30:26;;;;;;;27.52;14.50;;;;;;;11.03;52.23;96118.13;4979296;28;20045;-80
2022/12/26 11:33:15;;;;;;;;;;;;;;;10.96;51.79;96112.22;4997621;28;20059;-80
2022/12/26 11:36:00;;;;;;;41.85;15.30;;;;;;;10.47;52.21;96021.31;4974057;28;19926;-80
2022/12/26 11:38:35;;;;;;;29.95;14.57;;;;;;;11.06;52.01;96111.50;4984471;28;20031;-80
2022/12/26 11:41:30;;;;;;;37.42;14.90;;;;;;;10.56;52.41;96072.84;4986648;28;20041;-80
2022/12/26 11:44:20;;;;;;;27.63;15.38;;;;;;;10.19;51.86;95973.88;5003970;28;20421;-80
2022/12/26 11:46:51;;;;;;;30.73;17.55;;;;;;;10.61;53.50;96098.63;4982117;28;20038;-80
2022/12/26 11:49:31;;;;;;;36.38;17.67;;;;;;;10.84;53.29;96101.75;4982297;28;20030;-80
2022/12/26 11:51:58;;;;;;;34.75;17.83;;;;;;;10.37;53.46;96040.59;4981601;28;20037;-80
2022/12/26 11:54:31;;;;;;;34.25;16.80;;;;;;;10.81;53.29;96101.47;4997764;28;20058;-80
2022/12/26 11:57:10;;;;;;;34.17;16.58;;;;;;;10.86;53.11;96090.09;4996624;28;20165;-80
2022/12/26 11:59:35;;;;;;;31.80;17.25;;;;;;;10.44;53.03;96024.47;4996566;28;20031;-80
2022/12/26 12:02:22;;;;;;;29.70;15.90;;;;;;;10.87;53.43;96084.53;4980892;28;20457;-80
2022/12/26 12:04:49;;;;;;;25.95;15.55;;;;;;;10.50;53.12;96012.88;4982230;28;20065;-80
2022/12/26 12:07:21;;;;;;;28.75;15.38;;;;;;;10.59;53.19;96076.88;4981944;28;20038;-79
2022/12/26 12:10:12;;;;;;;32.63;16.13;;;;;;;10.79;53.39;96074.38;4998915;28;20030;-79
2022/12/26 12:13:03;;;;;;;28.05;14.07;;;;;;;10.84;52.60;96077.06;4999036;28;20034;-80
2022/12/26 12:15:36;;;;;;;25.73;14.63;;;;;;;10.40;52.76;95970.34;4998657;28;20483;-80
2022/12/26 12:18:31;;;;;;;23.92;13.95;;;;;;;10.99;52.37;96052.50;4999557;28;20599;-80
2022/12/26 12:21:14;;;;;;;33.75;15.43;;;;;;;11.19;52.34;96066.75;4980976;28;20038;-78
2022/12/26 12:23:58;;;;;;;25.73;14.95;;;;;;;11.30;52.42;96067.59;4998414;28;20034;-79
2022/12/26 12:26:35;;;;;;;29.95;13.35;;;;;;;11.39;51.90;96055.44;4998311;28;20472;-79
2022/12/26 12:29:04;;;;;;;30.38;14.75;;;;;;;11.59;51.86;96066.16;4998956;28;20409;-79
2022/12/26 12:31:55;;;;;;;33.60;15.52;;;;;;;11.55;51.72;96061.63;4980023;28;20045;-80
2022/12/26 12:34:39;;;;;;;;;;;;;;;11.62;51.56;96062.19;4998021;28;20057;-79
2022/12/26 12:37:24;;;;;;;33.83;18.05;;;;;;;11.72;50.94;96056.94;4998822;28;19917;-80
2022/12/26 12:40:17;;;;;;;38.47;18.58;;;;;;;11.93;50.54;96063.16;4997944;28;20111;-80
2022/12/26 12:43:25;;;;;;;40.15;17.65;;;;;;;12.00;50.45;96069.03;4998240;28;20045;-80
2022/12/26 12:46:11;;;;;;;31.92;17.38;;;;;;;11.21;50.26;95965.59;4971831;28;20129;-80
2022/12/26 12:48:55;;;;;;;36.38;19.27;;;;;;;11.97;50.36;96066.91;4961807;28;20054;-80
2022/12/26 12:51:39;;;;;;;43.60;19.95;;;;;;;11.16;50.32;95962.91;4981052;28;20038;-80
2022/12/26 12:54:22;;;;;;;36.38;18.55;;;;;;;12.01;50.09;96065.31;4997613;28;20564;-80
2022/12/26 12:57:00;;;;;;;32.50;17.25;;;;;;;11.95;50.28;96061.84;4997369;28;20065;-80
2022/12/26 12:59:34;;;;;;;37.20;17.77;;;;;;;12.09;49.98;96066.69;4980934;28;20030;-80
2022/12/26 13:02:12;;;;;;;34.00;17.35;;;;;;;11.84;50.42;96023.00;4979923;28;20104;-80
2022/12/26 13:04:42;;;;;;;31.40;16.48;;;;;;;11.59;50.18;95972.41;4996371;28;20120;-80
2022/12/26 13:07:23;;;;;;;35.88;18.23;;;;;;;11.62;50.60;96001.09;4996998;28;20030;-80
2022/12/26 13:09:55;;;;;;;27.93;14.73;;;;;;;11.40;50.86;95972.03;4997536;28;20042;-80
2022/12/26 13:12:25;;;;;;;27.63;13.48;;;;;;;11.17;50.32;95933.44;4979224;28;20027;-80
2022/12/26 13:15:01;;;;;;;21.75;11.15;;;;;;;10.98;50.51;95944.75;4996902;28;20034;-80
2022/12/26 13:17:43;;;;;;;22.63;11.90;;;;;;;11.27;50.47;95955.78;4997080;28;20509;-80
2022/12/26 13:20:21;;;;;;;23.80;11.13;;;;;;;11.48;50.63;95989.34;4997235;28;20432;-80
2022/12/26 13:25:56;;;;;;;24.98;13.00;;;;;;;11.38;50.33;95968.84;4997829;28;20048;-80
2022/12/26 13:28:28;;;;;;;24.08;11.27;;;;;;;11.39;50.54;95981.06;5013100;28;20027;-80
2022/12/26 13:30:54;;;;;;;;;;;;;;;11.98;50.23;96063.97;4979199;28;20037;-80
2022/12/26 13:33:20;;;;;;;21.50;11.30;;;;;;;11.93;50.05;96036.59;4985019;28;20455;-80
2022/12/26 13:35:49;;;;;;;19.75;10.45;;;;;;;11.85;50.57;96021.13;4996385;28;20056;-80
2022/12/26 13:38:15;;;;;;;24.48;10.45;;;;;;;11.79;50.18;96020.34;4997114;28;20034;-80
2022/12/26 13:40:46;;;;;;;18.85;9.25;;;;;;;11.45;50.50;95984.53;4997171;28;20049;-80
2022/12/26 13:46:03;;;;;;;20.83;9.93;;;;;;;11.49;50.65;95999.72;4996237;28;20508;-80
2022/12/26 13:48:30;;;;;;;20.67;9.15;;;;;;;11.75;51.09;96053.00;4996729;28;20030;-80
2022/12/26 13:51:01;;;;;;;21.45;9.50;;;;;;;11.33;50.93;95990.06;4997635;28;20054;-80
2022/12/26 13:53:36;;;;;;;25.17;8.35;;;;;;;11.74;50.77;96059.34;4978852;28;20026;-80
2022/12/26 13:56:16;;;;;;;17.02;8.27;;;;;;;11.68;50.88;96049.72;4995964;28;20098;-80